DEART LFQT-LFPN
Flight info
| Callsign | DEART |
|---|---|
| Flight time | 1h 23m |
| Altitude | 2500 |
| Route | LFQT LFPN |
| Aircraft | C152/L-SDFGY/S |
Departure
| Time | 2026-04-28 19:17 |
|---|---|
| Airport | Merville-Calonne Airport (LFQT) |
Arrival
| Time | 2026-04-28 20:41 |
|---|---|
| Airport | Toussus-le-Noble Airport (LFPN) |
| Time | Latitude | Longitude | Altitude | Speed | Heading |
|---|---|---|---|---|---|
| 2026-04-28 19:17 | 50.57856 | 2.63026 | 1116 ft | 101 kts | 158° |
| 2026-04-28 19:17 | 50.57164 | 2.63228 | 1112 ft | 101 kts | 158° |
| 2026-04-28 19:18 | 50.56470 | 2.63406 | 1114 ft | 101 kts | 157° |
| 2026-04-28 19:18 | 50.55774 | 2.63560 | 1112 ft | 100 kts | 158° |
| 2026-04-28 19:18 | 50.55082 | 2.63715 | 1117 ft | 102 kts | 157° |
| 2026-04-28 19:18 | 50.54365 | 2.63869 | 1115 ft | 106 kts | 158° |
| 2026-04-28 19:19 | 50.53622 | 2.64027 | 1119 ft | 109 kts | 158° |
| 2026-04-28 19:19 | 50.52952 | 2.64394 | 1118 ft | 97 kts | 130° |
| 2026-04-28 19:19 | 50.52379 | 2.64974 | 1117 ft | 98 kts | 133° |
| 2026-04-28 19:19 | 50.51805 | 2.65539 | 1116 ft | 97 kts | 131° |
| 2026-04-28 19:20 | 50.51236 | 2.66117 | 1116 ft | 98 kts | 131° |
| 2026-04-28 19:20 | 50.50664 | 2.66704 | 1118 ft | 99 kts | 132° |
| 2026-04-28 19:20 | 50.50093 | 2.67302 | 1118 ft | 99 kts | 132° |
| 2026-04-28 19:20 | 50.49520 | 2.67906 | 1118 ft | 99 kts | 132° |
| 2026-04-28 19:21 | 50.48952 | 2.68525 | 1119 ft | 101 kts | 132° |
| 2026-04-28 19:21 | 50.48278 | 2.68897 | 1117 ft | 116 kts | 179° |
| 2026-04-28 19:21 | 50.47483 | 2.68673 | 1113 ft | 116 kts | 181° |
| 2026-04-28 19:21 | 50.46720 | 2.68256 | 1116 ft | 122 kts | 214° |
| 2026-04-28 19:22 | 50.46074 | 2.67392 | 1116 ft | 121 kts | 216° |
| 2026-04-28 19:22 | 50.45643 | 2.66836 | 1112 ft | 121 kts | 214° |
| 2026-04-28 19:22 | 50.44783 | 2.65693 | 1117 ft | 122 kts | 216° |
| 2026-04-28 19:22 | 50.44182 | 2.64779 | 1110 ft | 122 kts | 243° |
| 2026-04-28 19:23 | 50.43825 | 2.63630 | 1264 ft | 114 kts | 244° |
| 2026-04-28 19:23 | 50.43456 | 2.62535 | 1384 ft | 112 kts | 243° |
| 2026-04-28 19:23 | 50.43097 | 2.61444 | 1543 ft | 113 kts | 244° |
| 2026-04-28 19:23 | 50.42759 | 2.60397 | 1637 ft | 106 kts | 242° |
| 2026-04-28 19:24 | 50.42454 | 2.59430 | 1750 ft | 94 kts | 246° |
| 2026-04-28 19:24 | 50.42154 | 2.58491 | 1903 ft | 100 kts | 244° |
| 2026-04-28 19:24 | 50.41680 | 2.57667 | 2060 ft | 105 kts | 215° |
| 2026-04-28 19:24 | 50.41125 | 2.56864 | 2225 ft | 111 kts | 217° |
| 2026-04-28 19:25 | 50.40548 | 2.56033 | 2393 ft | 114 kts | 216° |
| 2026-04-28 19:25 | 50.39967 | 2.55172 | 2510 ft | 116 kts | 217° |
| 2026-04-28 19:25 | 50.39371 | 2.54313 | 2512 ft | 116 kts | 211° |
| 2026-04-28 19:25 | 50.38679 | 2.53783 | 2516 ft | 110 kts | 193° |
| 2026-04-28 19:26 | 50.37981 | 2.53273 | 2514 ft | 111 kts | 193° |
| 2026-04-28 19:26 | 50.37278 | 2.52761 | 2510 ft | 111 kts | 193° |
| 2026-04-28 19:26 | 50.36572 | 2.52258 | 2511 ft | 112 kts | 193° |
| 2026-04-28 19:26 | 50.35856 | 2.51747 | 2513 ft | 113 kts | 193° |
| 2026-04-28 19:27 | 50.35150 | 2.51233 | 2513 ft | 112 kts | 192° |
| 2026-04-28 19:27 | 50.34437 | 2.50705 | 2515 ft | 115 kts | 193° |
| 2026-04-28 19:27 | 50.33717 | 2.50153 | 2512 ft | 115 kts | 193° |
| 2026-04-28 19:27 | 50.32999 | 2.49603 | 2513 ft | 116 kts | 193° |
| 2026-04-28 19:28 | 50.32276 | 2.49053 | 2513 ft | 116 kts | 193° |
| 2026-04-28 19:28 | 50.31548 | 2.48498 | 2513 ft | 116 kts | 193° |
| 2026-04-28 19:28 | 50.30833 | 2.47970 | 2512 ft | 115 kts | 193° |
| 2026-04-28 19:28 | 50.30106 | 2.47454 | 2504 ft | 114 kts | 192° |
| 2026-04-28 19:29 | 50.29385 | 2.46933 | 2499 ft | 115 kts | 193° |
| 2026-04-28 19:29 | 50.28894 | 2.46601 | 2497 ft | 112 kts | 188° |
| 2026-04-28 19:29 | 50.27889 | 2.45991 | 2328 ft | 117 kts | 189° |
| 2026-04-28 19:29 | 50.27181 | 2.45552 | 2426 ft | 103 kts | 188° |
| 2026-04-28 19:30 | 50.26508 | 2.45117 | 2426 ft | 106 kts | 188° |
| 2026-04-28 19:30 | 50.25819 | 2.44653 | 2430 ft | 109 kts | 189° |
| 2026-04-28 19:30 | 50.25109 | 2.44193 | 2435 ft | 112 kts | 189° |
| 2026-04-28 19:30 | 50.24374 | 2.43730 | 2432 ft | 115 kts | 189° |
| 2026-04-28 19:31 | 50.23639 | 2.43264 | 2432 ft | 114 kts | 189° |
| 2026-04-28 19:31 | 50.22901 | 2.42790 | 2430 ft | 114 kts | 189° |
| 2026-04-28 19:31 | 50.22162 | 2.42315 | 2431 ft | 115 kts | 189° |
| 2026-04-28 19:31 | 50.21516 | 2.41908 | 2430 ft | 115 kts | 189° |
| 2026-04-28 19:32 | 50.20779 | 2.41451 | 2419 ft | 112 kts | 188° |
| 2026-04-28 19:32 | 50.20075 | 2.40984 | 2404 ft | 106 kts | 189° |
| 2026-04-28 19:32 | 50.19408 | 2.40537 | 2414 ft | 108 kts | 188° |
| 2026-04-28 19:32 | 50.18715 | 2.40061 | 2414 ft | 108 kts | 189° |
| 2026-04-28 19:33 | 50.18041 | 2.39597 | 2416 ft | 107 kts | 188° |
| 2026-04-28 19:33 | 50.17366 | 2.39119 | 2420 ft | 107 kts | 188° |
| 2026-04-28 19:33 | 50.16675 | 2.38628 | 2424 ft | 112 kts | 189° |
| 2026-04-28 19:33 | 50.15954 | 2.38137 | 2421 ft | 112 kts | 189° |
| 2026-04-28 19:34 | 50.15234 | 2.37664 | 2422 ft | 113 kts | 189° |
| 2026-04-28 19:34 | 50.14511 | 2.37198 | 2422 ft | 113 kts | 189° |
| 2026-04-28 19:34 | 50.13785 | 2.36734 | 2419 ft | 112 kts | 189° |
| 2026-04-28 19:34 | 50.13058 | 2.36270 | 2403 ft | 111 kts | 189° |
| 2026-04-28 19:35 | 50.12360 | 2.35819 | 2418 ft | 112 kts | 189° |
| 2026-04-28 19:35 | 50.11619 | 2.35354 | 2419 ft | 117 kts | 189° |
| 2026-04-28 19:35 | 50.10876 | 2.34869 | 2418 ft | 116 kts | 189° |
| 2026-04-28 19:35 | 50.10124 | 2.34381 | 2418 ft | 118 kts | 189° |
| 2026-04-28 19:36 | 50.09364 | 2.33894 | 2419 ft | 118 kts | 189° |
| 2026-04-28 19:36 | 50.08608 | 2.33405 | 2419 ft | 117 kts | 189° |
| 2026-04-28 19:36 | 50.07862 | 2.32912 | 2415 ft | 115 kts | 189° |
| 2026-04-28 19:36 | 50.07130 | 2.32426 | 2411 ft | 114 kts | 189° |
| 2026-04-28 19:37 | 50.06395 | 2.31974 | 2406 ft | 112 kts | 189° |
| 2026-04-28 19:37 | 50.05911 | 2.31680 | 2410 ft | 113 kts | 189° |
| 2026-04-28 19:37 | 50.04935 | 2.31082 | 2404 ft | 111 kts | 188° |
| 2026-04-28 19:37 | 50.04218 | 2.30631 | 2409 ft | 113 kts | 188° |
| 2026-04-28 19:38 | 50.03490 | 2.30166 | 2410 ft | 113 kts | 189° |
| 2026-04-28 19:38 | 50.02778 | 2.29715 | 2408 ft | 110 kts | 187° |
| 2026-04-28 19:38 | 50.02058 | 2.29258 | 2412 ft | 113 kts | 188° |
| 2026-04-28 19:38 | 50.01327 | 2.28780 | 2409 ft | 114 kts | 188° |
| 2026-04-28 19:39 | 50.00596 | 2.28284 | 2409 ft | 115 kts | 189° |
| 2026-04-28 19:39 | 49.99859 | 2.27794 | 2405 ft | 115 kts | 188° |
| 2026-04-28 19:39 | 49.99123 | 2.27303 | 2401 ft | 115 kts | 189° |
| 2026-04-28 19:39 | 49.98382 | 2.26815 | 2397 ft | 115 kts | 189° |
| 2026-04-28 19:40 | 49.97650 | 2.26334 | 2397 ft | 114 kts | 189° |
| 2026-04-28 19:40 | 49.96924 | 2.25853 | 2400 ft | 112 kts | 189° |
| 2026-04-28 19:40 | 49.96212 | 2.25376 | 2399 ft | 111 kts | 188° |
| 2026-04-28 19:40 | 49.95507 | 2.24896 | 2401 ft | 111 kts | 189° |
| 2026-04-28 19:41 | 49.94795 | 2.24408 | 2415 ft | 112 kts | 189° |
| 2026-04-28 19:41 | 49.94078 | 2.23921 | 2407 ft | 111 kts | 188° |
| 2026-04-28 19:41 | 49.93374 | 2.23439 | 2407 ft | 111 kts | 188° |
| 2026-04-28 19:41 | 49.92666 | 2.22946 | 2407 ft | 112 kts | 189° |
| 2026-04-28 19:42 | 49.91954 | 2.22462 | 2405 ft | 112 kts | 189° |
| 2026-04-28 19:42 | 49.91309 | 2.22052 | 2410 ft | 116 kts | 189° |
| 2026-04-28 19:42 | 49.90550 | 2.21582 | 2406 ft | 118 kts | 188° |
| 2026-04-28 19:42 | 49.90047 | 2.21265 | 2410 ft | 117 kts | 188° |
| 2026-04-28 19:43 | 49.89039 | 2.20620 | 2408 ft | 117 kts | 189° |
| 2026-04-28 19:43 | 49.88300 | 2.20143 | 2402 ft | 115 kts | 185° |
| 2026-04-28 19:43 | 49.87563 | 2.19811 | 2398 ft | 109 kts | 179° |
| 2026-04-28 19:43 | 49.86836 | 2.19481 | 2392 ft | 108 kts | 178° |
| 2026-04-28 19:44 | 49.86127 | 2.19144 | 2393 ft | 106 kts | 179° |
| 2026-04-28 19:44 | 49.85417 | 2.18799 | 2386 ft | 107 kts | 179° |
| 2026-04-28 19:44 | 49.84702 | 2.18466 | 2387 ft | 108 kts | 179° |
| 2026-04-28 19:44 | 49.83979 | 2.18147 | 2392 ft | 108 kts | 179° |
| 2026-04-28 19:45 | 49.83244 | 2.17843 | 2392 ft | 110 kts | 179° |
| 2026-04-28 19:45 | 49.82505 | 2.17538 | 2395 ft | 110 kts | 179° |
| 2026-04-28 19:45 | 49.81767 | 2.17231 | 2393 ft | 108 kts | 179° |
| 2026-04-28 19:45 | 49.81055 | 2.16929 | 2398 ft | 105 kts | 179° |
| 2026-04-28 19:46 | 49.80345 | 2.16620 | 2392 ft | 107 kts | 178° |
| 2026-04-28 19:46 | 49.79627 | 2.16279 | 2393 ft | 109 kts | 179° |
| 2026-04-28 19:46 | 49.78890 | 2.15930 | 2396 ft | 112 kts | 179° |
| 2026-04-28 19:46 | 49.78146 | 2.15578 | 2394 ft | 111 kts | 179° |
| 2026-04-28 19:47 | 49.77409 | 2.15228 | 2397 ft | 111 kts | 179° |
| 2026-04-28 19:47 | 49.76669 | 2.14878 | 2392 ft | 111 kts | 179° |
| 2026-04-28 19:47 | 49.75926 | 2.14535 | 2391 ft | 112 kts | 179° |
| 2026-04-28 19:47 | 49.75185 | 2.14194 | 2393 ft | 110 kts | 179° |
| 2026-04-28 19:48 | 49.74459 | 2.13877 | 2390 ft | 107 kts | 179° |
| 2026-04-28 19:48 | 49.73740 | 2.13567 | 2395 ft | 108 kts | 179° |
| 2026-04-28 19:48 | 49.73254 | 2.13360 | 2394 ft | 110 kts | 179° |
| 2026-04-28 19:48 | 49.72510 | 2.13051 | 2405 ft | 113 kts | 179° |
| 2026-04-28 19:49 | 49.71742 | 2.12747 | 2393 ft | 113 kts | 179° |
| 2026-04-28 19:49 | 49.70748 | 2.12338 | 2392 ft | 110 kts | 179° |
| 2026-04-28 19:49 | 49.70015 | 2.12025 | 2383 ft | 108 kts | 179° |
| 2026-04-28 19:49 | 49.69532 | 2.11816 | 2376 ft | 104 kts | 178° |
| 2026-04-28 19:50 | 49.68121 | 2.11167 | 2388 ft | 114 kts | 179° |
| 2026-04-28 19:50 | 49.67348 | 2.10838 | 2389 ft | 116 kts | 179° |
| 2026-04-28 19:50 | 49.66577 | 2.10511 | 2387 ft | 114 kts | 179° |
| 2026-04-28 19:51 | 49.65823 | 2.10183 | 2385 ft | 110 kts | 179° |
| 2026-04-28 19:51 | 49.65094 | 2.09851 | 2388 ft | 111 kts | 179° |
| 2026-04-28 19:51 | 49.64345 | 2.09523 | 2382 ft | 112 kts | 179° |
| 2026-04-28 19:51 | 49.63593 | 2.09208 | 2384 ft | 112 kts | 179° |
| 2026-04-28 19:52 | 49.62856 | 2.08909 | 2385 ft | 110 kts | 179° |
| 2026-04-28 19:52 | 49.62112 | 2.08599 | 2386 ft | 110 kts | 179° |
| 2026-04-28 19:52 | 49.61374 | 2.08284 | 2384 ft | 110 kts | 179° |
| 2026-04-28 19:52 | 49.60634 | 2.07966 | 2381 ft | 111 kts | 179° |
| 2026-04-28 19:53 | 49.59894 | 2.07647 | 2379 ft | 110 kts | 179° |
| 2026-04-28 19:53 | 49.59165 | 2.07320 | 2378 ft | 108 kts | 179° |
| 2026-04-28 19:53 | 49.58451 | 2.06991 | 2375 ft | 107 kts | 179° |
| 2026-04-28 19:53 | 49.57732 | 2.06661 | 2373 ft | 109 kts | 179° |
| 2026-04-28 19:54 | 49.57009 | 2.06331 | 2367 ft | 106 kts | 178° |
| 2026-04-28 19:54 | 49.56323 | 2.06001 | 2365 ft | 105 kts | 179° |
| 2026-04-28 19:54 | 49.55622 | 2.05667 | 2376 ft | 107 kts | 179° |
| 2026-04-28 19:54 | 49.54875 | 2.05335 | 2383 ft | 115 kts | 179° |
| 2026-04-28 19:55 | 49.54098 | 2.05005 | 2387 ft | 116 kts | 178° |
| 2026-04-28 19:55 | 49.53327 | 2.04776 | 2382 ft | 111 kts | 172° |
| 2026-04-28 19:55 | 49.52578 | 2.04560 | 2379 ft | 108 kts | 172° |
| 2026-04-28 19:55 | 49.51839 | 2.04345 | 2384 ft | 108 kts | 172° |
| 2026-04-28 19:56 | 49.51095 | 2.04136 | 2382 ft | 109 kts | 172° |
| 2026-04-28 19:56 | 49.50350 | 2.03932 | 2382 ft | 109 kts | 172° |
| 2026-04-28 19:56 | 49.49613 | 2.03731 | 2383 ft | 106 kts | 172° |
| 2026-04-28 19:56 | 49.48890 | 2.03529 | 2373 ft | 104 kts | 172° |
| 2026-04-28 19:57 | 49.48192 | 2.03318 | 2370 ft | 101 kts | 172° |
| 2026-04-28 19:57 | 49.47498 | 2.03111 | 2372 ft | 102 kts | 172° |
| 2026-04-28 19:57 | 49.46794 | 2.02912 | 2370 ft | 104 kts | 172° |
| 2026-04-28 19:57 | 49.46081 | 2.02711 | 2373 ft | 105 kts | 172° |
| 2026-04-28 19:58 | 49.45356 | 2.02520 | 2375 ft | 106 kts | 172° |
| 2026-04-28 19:58 | 49.44622 | 2.02338 | 2378 ft | 108 kts | 172° |
| 2026-04-28 19:58 | 49.43874 | 2.02156 | 2382 ft | 109 kts | 172° |
| 2026-04-28 19:58 | 49.43129 | 2.01975 | 2379 ft | 107 kts | 172° |
| 2026-04-28 19:59 | 49.42389 | 2.01790 | 2381 ft | 109 kts | 172° |
| 2026-04-28 19:59 | 49.41636 | 2.01603 | 2383 ft | 110 kts | 172° |
| 2026-04-28 19:59 | 49.40877 | 2.01417 | 2383 ft | 111 kts | 172° |
| 2026-04-28 19:59 | 49.40121 | 2.01236 | 2385 ft | 109 kts | 172° |
| 2026-04-28 20:00 | 49.39362 | 2.01058 | 2380 ft | 110 kts | 172° |
| 2026-04-28 20:00 | 49.38608 | 2.00887 | 2381 ft | 111 kts | 172° |
| 2026-04-28 20:00 | 49.37849 | 2.00710 | 2377 ft | 109 kts | 172° |
| 2026-04-28 20:00 | 49.37114 | 2.00533 | 2373 ft | 107 kts | 172° |
| 2026-04-28 20:01 | 49.36388 | 2.00343 | 2374 ft | 105 kts | 172° |
| 2026-04-28 20:01 | 49.35650 | 2.00157 | 2373 ft | 109 kts | 172° |
| 2026-04-28 20:01 | 49.34910 | 1.99989 | 2343 ft | 108 kts | 172° |
| 2026-04-28 20:01 | 49.34137 | 1.99842 | 2250 ft | 113 kts | 172° |
| 2026-04-28 20:02 | 49.33365 | 1.99686 | 2252 ft | 111 kts | 171° |
| 2026-04-28 20:02 | 49.32655 | 1.99767 | 2249 ft | 99 kts | 148° |
| 2026-04-28 20:02 | 49.31975 | 1.99922 | 2243 ft | 97 kts | 150° |
| 2026-04-28 20:02 | 49.31307 | 2.00058 | 2239 ft | 97 kts | 153° |
| 2026-04-28 20:03 | 49.30634 | 2.00185 | 2237 ft | 99 kts | 154° |
| 2026-04-28 20:03 | 49.29957 | 2.00299 | 2236 ft | 97 kts | 155° |
| 2026-04-28 20:03 | 49.29289 | 2.00413 | 2234 ft | 96 kts | 155° |
| 2026-04-28 20:03 | 49.28632 | 2.00520 | 2248 ft | 94 kts | 156° |
| 2026-04-28 20:04 | 49.27988 | 2.00625 | 2248 ft | 92 kts | 156° |
| 2026-04-28 20:04 | 49.27360 | 2.00729 | 2250 ft | 92 kts | 156° |
| 2026-04-28 20:04 | 49.26715 | 2.00834 | 2252 ft | 94 kts | 156° |
| 2026-04-28 20:04 | 49.26064 | 2.00940 | 2252 ft | 94 kts | 156° |
| 2026-04-28 20:05 | 49.25407 | 2.01046 | 2255 ft | 96 kts | 156° |
| 2026-04-28 20:05 | 49.24741 | 2.01153 | 2253 ft | 96 kts | 155° |
| 2026-04-28 20:05 | 49.24081 | 2.01258 | 2254 ft | 95 kts | 155° |
| 2026-04-28 20:05 | 49.23423 | 2.01364 | 2253 ft | 94 kts | 154° |
| 2026-04-28 20:06 | 49.22773 | 2.01469 | 2253 ft | 94 kts | 154° |
| 2026-04-28 20:06 | 49.22123 | 2.01574 | 2266 ft | 94 kts | 154° |
| 2026-04-28 20:06 | 49.21465 | 2.01681 | 2254 ft | 96 kts | 155° |
| 2026-04-28 20:06 | 49.20806 | 2.01786 | 2252 ft | 94 kts | 154° |
| 2026-04-28 20:07 | 49.20169 | 2.01885 | 2249 ft | 91 kts | 153° |
| 2026-04-28 20:07 | 49.19754 | 2.01953 | 2248 ft | 91 kts | 154° |
| 2026-04-28 20:07 | 49.18905 | 2.02093 | 2241 ft | 93 kts | 153° |
| 2026-04-28 20:07 | 49.18287 | 2.02189 | 2241 ft | 88 kts | 154° |
| 2026-04-28 20:08 | 49.17661 | 2.02295 | 2240 ft | 93 kts | 156° |
| 2026-04-28 20:08 | 49.17009 | 2.02402 | 2248 ft | 96 kts | 157° |
| 2026-04-28 20:08 | 49.16304 | 2.02282 | 2243 ft | 115 kts | 199° |
| 2026-04-28 20:08 | 49.15619 | 2.01639 | 2251 ft | 116 kts | 199° |
| 2026-04-28 20:09 | 49.14919 | 2.01000 | 2253 ft | 119 kts | 200° |
| 2026-04-28 20:09 | 49.14217 | 2.00366 | 2244 ft | 113 kts | 199° |
| 2026-04-28 20:09 | 49.13553 | 1.99737 | 2238 ft | 112 kts | 199° |
| 2026-04-28 20:09 | 49.12899 | 1.99105 | 2236 ft | 108 kts | 201° |
| 2026-04-28 20:10 | 49.12277 | 1.98513 | 2236 ft | 105 kts | 199° |
| 2026-04-28 20:10 | 49.11652 | 1.97928 | 2235 ft | 106 kts | 199° |
| 2026-04-28 20:10 | 49.11026 | 1.97312 | 2239 ft | 107 kts | 199° |
| 2026-04-28 20:10 | 49.10390 | 1.96684 | 2249 ft | 111 kts | 200° |
| 2026-04-28 20:11 | 49.09706 | 1.96054 | 2253 ft | 117 kts | 199° |
| 2026-04-28 20:11 | 49.09007 | 1.95413 | 2254 ft | 119 kts | 200° |
| 2026-04-28 20:11 | 49.08307 | 1.94771 | 2256 ft | 119 kts | 200° |
| 2026-04-28 20:11 | 49.07599 | 1.94131 | 2248 ft | 117 kts | 199° |
| 2026-04-28 20:12 | 49.06925 | 1.93504 | 2242 ft | 110 kts | 199° |
| 2026-04-28 20:12 | 49.06271 | 1.92906 | 2257 ft | 111 kts | 201° |
| 2026-04-28 20:12 | 49.05597 | 1.92357 | 2250 ft | 108 kts | 200° |
| 2026-04-28 20:12 | 49.05150 | 1.91999 | 2247 ft | 107 kts | 200° |
| 2026-04-28 20:13 | 49.04274 | 1.91309 | 2242 ft | 106 kts | 200° |
| 2026-04-28 20:13 | 49.03621 | 1.90796 | 2239 ft | 105 kts | 200° |
| 2026-04-28 20:13 | 49.02971 | 1.90287 | 2237 ft | 105 kts | 199° |
| 2026-04-28 20:13 | 49.02331 | 1.89765 | 2236 ft | 104 kts | 198° |
| 2026-04-28 20:14 | 49.01698 | 1.89253 | 2243 ft | 103 kts | 199° |
| 2026-04-28 20:14 | 49.01049 | 1.88792 | 2239 ft | 102 kts | 191° |
| 2026-04-28 20:14 | 49.00387 | 1.88409 | 2239 ft | 102 kts | 192° |
| 2026-04-28 20:14 | 48.99721 | 1.88038 | 2237 ft | 102 kts | 191° |
| 2026-04-28 20:15 | 48.99059 | 1.87663 | 2238 ft | 103 kts | 192° |
| 2026-04-28 20:15 | 48.98384 | 1.87280 | 2233 ft | 104 kts | 192° |
| 2026-04-28 20:15 | 48.97710 | 1.86888 | 2231 ft | 103 kts | 192° |
| 2026-04-28 20:15 | 48.97049 | 1.86493 | 2233 ft | 101 kts | 192° |
| 2026-04-28 20:16 | 48.96395 | 1.86102 | 2232 ft | 100 kts | 192° |
| 2026-04-28 20:16 | 48.95757 | 1.85713 | 2233 ft | 96 kts | 191° |
| 2026-04-28 20:16 | 48.95119 | 1.85322 | 2235 ft | 101 kts | 192° |
| 2026-04-28 20:16 | 48.94459 | 1.84926 | 2238 ft | 103 kts | 192° |
| 2026-04-28 20:17 | 48.93789 | 1.84530 | 2236 ft | 103 kts | 192° |
| 2026-04-28 20:17 | 48.93123 | 1.84134 | 2240 ft | 103 kts | 192° |
| 2026-04-28 20:17 | 48.92440 | 1.83733 | 2241 ft | 108 kts | 192° |
| 2026-04-28 20:17 | 48.91742 | 1.83327 | 2244 ft | 107 kts | 192° |
| 2026-04-28 20:18 | 48.91050 | 1.82919 | 2245 ft | 106 kts | 192° |
| 2026-04-28 20:18 | 48.90599 | 1.82652 | 2245 ft | 104 kts | 192° |
| 2026-04-28 20:18 | 48.89703 | 1.82112 | 2238 ft | 104 kts | 192° |
| 2026-04-28 20:18 | 48.89033 | 1.81718 | 2233 ft | 103 kts | 191° |
| 2026-04-28 20:19 | 48.88356 | 1.81462 | 2235 ft | 100 kts | 181° |
| 2026-04-28 20:19 | 48.87666 | 1.81234 | 2234 ft | 101 kts | 181° |
| 2026-04-28 20:19 | 48.86994 | 1.81011 | 2234 ft | 100 kts | 181° |
| 2026-04-28 20:19 | 48.86323 | 1.80884 | 2236 ft | 95 kts | 169° |
| 2026-04-28 20:20 | 48.85647 | 1.80842 | 2234 ft | 94 kts | 171° |
| 2026-04-28 20:20 | 48.85011 | 1.80797 | 2232 ft | 92 kts | 171° |
| 2026-04-28 20:20 | 48.84372 | 1.80747 | 2229 ft | 92 kts | 171° |
| 2026-04-28 20:20 | 48.83733 | 1.80603 | 2227 ft | 95 kts | 181° |
| 2026-04-28 20:21 | 48.83086 | 1.80404 | 2226 ft | 96 kts | 180° |
| 2026-04-28 20:21 | 48.82419 | 1.80287 | 2227 ft | 95 kts | 173° |
| 2026-04-28 20:21 | 48.81765 | 1.80210 | 2228 ft | 95 kts | 173° |
| 2026-04-28 20:21 | 48.81100 | 1.80132 | 2229 ft | 96 kts | 173° |
| 2026-04-28 20:22 | 48.80432 | 1.80054 | 2227 ft | 97 kts | 173° |
| 2026-04-28 20:22 | 48.79757 | 1.79977 | 2230 ft | 98 kts | 173° |
| 2026-04-28 20:22 | 48.79075 | 1.79897 | 2232 ft | 98 kts | 173° |
| 2026-04-28 20:22 | 48.78394 | 1.79818 | 2231 ft | 97 kts | 173° |
| 2026-04-28 20:23 | 48.77720 | 1.79745 | 2227 ft | 96 kts | 173° |
| 2026-04-28 20:23 | 48.77053 | 1.79674 | 2228 ft | 96 kts | 173° |
| 2026-04-28 20:23 | 48.76385 | 1.79595 | 2225 ft | 96 kts | 173° |
| 2026-04-28 20:23 | 48.75720 | 1.79523 | 2223 ft | 95 kts | 172° |
| 2026-04-28 20:24 | 48.75060 | 1.79442 | 2225 ft | 93 kts | 168° |
| 2026-04-28 20:24 | 48.74503 | 1.79711 | 2222 ft | 83 kts | 141° |
| 2026-04-28 20:24 | 48.73974 | 1.80090 | 2222 ft | 83 kts | 142° |
| 2026-04-28 20:24 | 48.73448 | 1.80463 | 2222 ft | 84 kts | 142° |
| 2026-04-28 20:25 | 48.72922 | 1.80837 | 2221 ft | 83 kts | 142° |
| 2026-04-28 20:25 | 48.72402 | 1.81218 | 2214 ft | 81 kts | 137° |
| 2026-04-28 20:25 | 48.71989 | 1.81742 | 2216 ft | 79 kts | 128° |
| 2026-04-28 20:25 | 48.71574 | 1.82286 | 2216 ft | 79 kts | 128° |
| 2026-04-28 20:26 | 48.71158 | 1.82831 | 2215 ft | 79 kts | 128° |
| 2026-04-28 20:26 | 48.70742 | 1.83375 | 2215 ft | 79 kts | 128° |
| 2026-04-28 20:26 | 48.70328 | 1.83915 | 2215 ft | 79 kts | 128° |
| 2026-04-28 20:26 | 48.69914 | 1.84454 | 2215 ft | 79 kts | 128° |
| 2026-04-28 20:27 | 48.69499 | 1.84991 | 2216 ft | 79 kts | 128° |
| 2026-04-28 20:27 | 48.69083 | 1.85530 | 2216 ft | 79 kts | 128° |
| 2026-04-28 20:27 | 48.68668 | 1.86067 | 2216 ft | 79 kts | 128° |
| 2026-04-28 20:27 | 48.68252 | 1.86604 | 2216 ft | 79 kts | 128° |
| 2026-04-28 20:28 | 48.67836 | 1.87141 | 2215 ft | 79 kts | 128° |
| 2026-04-28 20:28 | 48.67418 | 1.87682 | 2214 ft | 79 kts | 128° |
| 2026-04-28 20:28 | 48.66998 | 1.88227 | 2215 ft | 80 kts | 128° |
| 2026-04-28 20:28 | 48.66577 | 1.88775 | 2216 ft | 80 kts | 128° |
| 2026-04-28 20:29 | 48.66156 | 1.89325 | 2216 ft | 80 kts | 128° |
| 2026-04-28 20:29 | 48.65736 | 1.89875 | 2217 ft | 80 kts | 128° |
| 2026-04-28 20:29 | 48.65317 | 1.90423 | 2217 ft | 79 kts | 128° |
| 2026-04-28 20:29 | 48.64918 | 1.90988 | 2213 ft | 74 kts | 111° |
| 2026-04-28 20:30 | 48.65017 | 1.91655 | 2211 ft | 70 kts | 63° |
| 2026-04-28 20:30 | 48.65249 | 1.92299 | 2212 ft | 70 kts | 65° |
| 2026-04-28 20:30 | 48.65475 | 1.92956 | 2212 ft | 71 kts | 65° |
| 2026-04-28 20:30 | 48.65699 | 1.93618 | 2211 ft | 71 kts | 61° |
| 2026-04-28 20:31 | 48.66046 | 1.94167 | 2212 ft | 73 kts | 53° |
| 2026-04-28 20:31 | 48.66396 | 1.94704 | 2212 ft | 71 kts | 53° |
| 2026-04-28 20:31 | 48.66740 | 1.95251 | 2213 ft | 73 kts | 53° |
| 2026-04-28 20:31 | 48.67088 | 1.95805 | 2218 ft | 73 kts | 53° |
| 2026-04-28 20:32 | 48.67447 | 1.96359 | 2215 ft | 74 kts | 53° |
| 2026-04-28 20:32 | 48.67802 | 1.96906 | 2215 ft | 72 kts | 52° |
| 2026-04-28 20:32 | 48.68146 | 1.97454 | 2215 ft | 72 kts | 53° |
| 2026-04-28 20:32 | 48.68494 | 1.98004 | 2214 ft | 72 kts | 53° |
| 2026-04-28 20:33 | 48.68842 | 1.98546 | 2210 ft | 71 kts | 53° |
| 2026-04-28 20:33 | 48.69159 | 1.99100 | 2212 ft | 68 kts | 66° |
| 2026-04-28 20:33 | 48.69354 | 1.99769 | 2214 ft | 71 kts | 68° |
| 2026-04-28 20:33 | 48.69570 | 2.00452 | 2219 ft | 73 kts | 68° |
| 2026-04-28 20:34 | 48.69711 | 2.00916 | 2221 ft | 73 kts | 75° |
| 2026-04-28 20:34 | 48.69547 | 2.01791 | 2226 ft | 73 kts | 84° |
| 2026-04-28 20:34 | 48.69658 | 2.02543 | 2227 ft | 73 kts | 79° |
| 2026-04-28 20:34 | 48.69766 | 2.03282 | 2225 ft | 71 kts | 78° |
| 2026-04-28 20:35 | 48.69882 | 2.04006 | 2226 ft | 71 kts | 77° |
| 2026-04-28 20:35 | 48.70006 | 2.04742 | 2225 ft | 74 kts | 76° |
| 2026-04-28 20:35 | 48.70139 | 2.05505 | 2228 ft | 74 kts | 75° |
| 2026-04-28 20:35 | 48.70277 | 2.06263 | 2225 ft | 76 kts | 75° |
| 2026-04-28 20:36 | 48.70416 | 2.07020 | 2225 ft | 75 kts | 75° |
| 2026-04-28 20:36 | 48.70556 | 2.07774 | 2224 ft | 73 kts | 75° |
| 2026-04-28 20:36 | 48.70694 | 2.08515 | 2224 ft | 73 kts | 77° |
| 2026-04-28 20:36 | 48.70832 | 2.09245 | 2244 ft | 71 kts | 77° |
| 2026-04-28 20:37 | 48.70975 | 2.10002 | 2181 ft | 76 kts | 76° |
| 2026-04-28 20:37 | 48.71051 | 2.10520 | 2149 ft | 75 kts | 80° |
| 2026-04-28 20:37 | 48.71141 | 2.11289 | 2143 ft | 73 kts | 74° |
| 2026-04-28 20:37 | 48.71724 | 2.11618 | 1850 ft | 98 kts | 336° |
| 2026-04-28 20:38 | 48.71963 | 2.10953 | 1646 ft | 110 kts | 288° |
| 2026-04-28 20:38 | 48.71987 | 2.09877 | 1514 ft | 94 kts | 272° |
| 2026-04-28 20:38 | 48.71968 | 2.08902 | 1399 ft | 91 kts | 271° |
| 2026-04-28 20:38 | 48.71970 | 2.07915 | 1281 ft | 96 kts | 284° |
| 2026-04-28 20:39 | 48.72261 | 2.07078 | 1202 ft | 88 kts | 326° |
| 2026-04-28 20:39 | 48.72787 | 2.06716 | 1191 ft | 79 kts | 346° |
| 2026-04-28 20:39 | 48.73278 | 2.06452 | 1203 ft | 72 kts | 346° |
| 2026-04-28 20:39 | 48.73754 | 2.06222 | 1170 ft | 71 kts | 357° |
| 2026-04-28 20:40 | 48.74137 | 2.06567 | 1097 ft | 71 kts | 59° |
| 2026-04-28 20:40 | 48.74337 | 2.07259 | 1016 ft | 72 kts | 66° |
| 2026-04-28 20:40 | 48.74476 | 2.07914 | 932 ft | 56 kts | 63° |
| 2026-04-28 20:40 | 48.74623 | 2.08487 | 794 ft | 58 kts | 68° |
| 2026-04-28 20:41 | 48.74748 | 2.09078 | 709 ft | 62 kts | 63° |
| 2026-04-28 20:41 | 48.74887 | 2.09685 | 604 ft | 61 kts | 64° |
| 2026-04-28 20:41 | 48.75018 | 2.10267 | 543 ft | 47 kts | 66° |
| 2026-04-28 20:41 | 48.75095 | 2.10611 | 542 ft | 26 kts | 68° |
| 2026-04-28 20:42 | 48.75150 | 2.10855 | 539 ft | 24 kts | 70° |
| 2026-04-28 20:42 | 48.75162 | 2.11001 | 540 ft | 8 kts | 130° |
| 2026-04-28 20:42 | 48.75133 | 2.11051 | 541 ft | 6 kts | 129° |
| 2026-04-28 20:42 | 48.75125 | 2.11104 | 541 ft | 5 kts | 75° |
| 2026-04-28 20:43 | 48.75140 | 2.11169 | 541 ft | 8 kts | 71° |
| 2026-04-28 20:43 | 48.75161 | 2.11264 | 541 ft | 10 kts | 72° |
| 2026-04-28 20:43 | 48.75183 | 2.11365 | 541 ft | 10 kts | 69° |
| 2026-04-28 20:43 | 48.75196 | 2.11474 | 541 ft | 11 kts | 138° |
| 2026-04-28 20:44 | 48.75116 | 2.11520 | 541 ft | 14 kts | 161° |
| 2026-04-28 20:44 | 48.75062 | 2.11600 | 541 ft | 11 kts | 107° |
| 2026-04-28 20:44 | 48.75046 | 2.11681 | 541 ft | 6 kts | 103° |
| 2026-04-28 20:44 | 48.75056 | 2.11703 | 541 ft | 2 kts | 25° |
| 2026-04-28 20:45 | 48.75055 | 2.11711 | 541 ft | 1 kts | 168° |
| 2026-04-28 20:45 | 48.75052 | 2.11711 | 541 ft | 0 kts | 202° |